LGZA/ZTH METAR and TAF weather

Enter ICAO airport designator
Station Type Date Time Source
LGZA METAR 2020/09/28 08:50 UTC NOAA

LGZA 280850Z 18016KT 9999 SCT012 FEW016TCU BKN018 BKN070 27/23 Q1015


Station Type Date Time Source
LGZA Decoded METAR 2020/09/28 08:50 UTC NOAA

Zakinthos Airport , Greece (LGZA) 37-45N 020-53E
Sep 28, 2020 - 04:50 AM EDT / 2020.09.28 0850 UTC
Wind: from the S (180 degrees) at 18 MPH (16 KT):0
Visibility: greater than 7 mile(s):0
Sky conditions: mostly cloudy
Weather: Towering cumulus clouds observed
Temperature: 80 F (27 C)
Dew Point: 73 F (23 C)
Relative Humidity: 78%
Pressure (altimeter): 29.97 in. Hg (1015 hPa)
ob: LGZA 280850Z 18016KT 9999 SCT012 FEW016TCU BKN018 BKN070 27/23 Q1015
cycle: 9

Station Type Date Time Source
LGZA TAF 2011/11/25 15:06 UTC NOAA

TAF TAF LGZA 251400Z 2515/2603 02012KT 9999 FEW025 SCT035 BKN080 PROB30
TEMPO 2518/2603 8000 RA PROB30 2522/2603 5000 BR SCT010

Example: see airport list